sensor_id;sensor_type;location;lat;lon;timestamp;P1;durP1;ratioP1;P2;durP2;ratioP2
51082;SDS011;37131;42.694;23.350;2024-01-27T00:01:44;3.50;;;2.47;;
51082;SDS011;37131;42.694;23.350;2024-01-27T00:04:09;4.45;;;2.42;;
51082;SDS011;37131;42.694;23.350;2024-01-27T00:06:34;5.30;;;2.65;;
51082;SDS011;37131;42.694;23.350;2024-01-27T00:09:00;5.07;;;1.98;;
51082;SDS011;37131;42.694;23.350;2024-01-27T00:11:25;7.95;;;2.30;;
51082;SDS011;37131;42.694;23.350;2024-01-27T00:13:51;3.53;;;2.17;;
51082;SDS011;37131;42.694;23.350;2024-01-27T00:16:17;4.75;;;2.38;;
51082;SDS011;37131;42.694;23.350;2024-01-27T00:18:42;7.03;;;2.40;;
51082;SDS011;37131;42.694;23.350;2024-01-27T00:21:08;5.40;;;1.83;;
51082;SDS011;37131;42.694;23.350;2024-01-27T00:23:33;2.45;;;1.48;;
51082;SDS011;37131;42.694;23.350;2024-01-27T00:25:59;4.63;;;1.60;;
51082;SDS011;37131;42.694;23.350;2024-01-27T00:28:28;3.53;;;2.05;;
51082;SDS011;37131;42.694;23.350;2024-01-27T00:30:54;4.25;;;2.00;;
51082;SDS011;37131;42.694;23.350;2024-01-27T00:33:19;4.75;;;2.00;;
51082;SDS011;37131;42.694;23.350;2024-01-27T00:35:44;7.38;;;1.95;;
51082;SDS011;37131;42.694;23.350;2024-01-27T00:38:10;9.05;;;2.10;;
51082;SDS011;37131;42.694;23.350;2024-01-27T00:40:35;4.32;;;1.85;;
51082;SDS011;37131;42.694;23.350;2024-01-27T00:43:04;6.35;;;2.33;;
51082;SDS011;37131;42.694;23.350;2024-01-27T00:45:29;6.28;;;2.30;;
51082;SDS011;37131;42.694;23.350;2024-01-27T00:47:55;5.68;;;2.30;;
51082;SDS011;37131;42.694;23.350;2024-01-27T00:50:21;4.75;;;2.17;;
51082;SDS011;37131;42.694;23.350;2024-01-27T00:52:46;6.63;;;2.08;;
51082;SDS011;37131;42.694;23.350;2024-01-27T00:55:12;4.07;;;2.55;;
51082;SDS011;37131;42.694;23.350;2024-01-27T00:57:37;4.82;;;2.40;;
51082;SDS011;37131;42.694;23.350;2024-01-27T01:00:06;10.10;;;2.92;;
51082;SDS011;37131;42.694;23.350;2024-01-27T01:02:33;7.35;;;3.10;;
51082;SDS011;37131;42.694;23.350;2024-01-27T01:04:59;4.90;;;2.60;;
51082;SDS011;37131;42.694;23.350;2024-01-27T01:07:25;2.78;;;1.23;;
51082;SDS011;37131;42.694;23.350;2024-01-27T01:09:50;4.45;;;1.55;;
51082;SDS011;37131;42.694;23.350;2024-01-27T01:12:16;3.28;;;2.40;;
51082;SDS011;37131;42.694;23.350;2024-01-27T01:14:41;6.90;;;2.17;;
51082;SDS011;37131;42.694;23.350;2024-01-27T01:17:08;6.40;;;2.35;;
51082;SDS011;37131;42.694;23.350;2024-01-27T01:19:33;8.35;;;2.58;;
51082;SDS011;37131;42.694;23.350;2024-01-27T01:21:58;6.18;;;2.47;;
51082;SDS011;37131;42.694;23.350;2024-01-27T01:24:24;5.03;;;1.48;;
51082;SDS011;37131;42.694;23.350;2024-01-27T01:26:49;7.30;;;2.35;;
51082;SDS011;37131;42.694;23.350;2024-01-27T01:29:16;4.43;;;2.17;;
51082;SDS011;37131;42.694;23.350;2024-01-27T01:31:44;2.92;;;1.80;;
51082;SDS011;37131;42.694;23.350;2024-01-27T01:34:10;6.07;;;2.72;;
51082;SDS011;37131;42.694;23.350;2024-01-27T01:36:35;5.93;;;2.10;;
51082;SDS011;37131;42.694;23.350;2024-01-27T01:39:00;4.40;;;1.90;;
51082;SDS011;37131;42.694;23.350;2024-01-27T01:41:26;3.92;;;1.63;;
51082;SDS011;37131;42.694;23.350;2024-01-27T01:43:51;7.75;;;1.70;;
51082;SDS011;37131;42.694;23.350;2024-01-27T01:46:17;2.88;;;1.70;;
51082;SDS011;37131;42.694;23.350;2024-01-27T01:48:43;3.17;;;1.50;;
51082;SDS011;37131;42.694;23.350;2024-01-27T01:51:09;4.50;;;1.67;;
51082;SDS011;37131;42.694;23.350;2024-01-27T01:53:35;3.22;;;1.90;;
51082;SDS011;37131;42.694;23.350;2024-01-27T01:56:01;4.70;;;1.80;;
51082;SDS011;37131;42.694;23.350;2024-01-27T01:58:27;5.47;;;1.50;;
51082;SDS011;37131;42.694;23.350;2024-01-27T02:00:59;5.00;;;1.33;;
51082;SDS011;37131;42.694;23.350;2024-01-27T02:03:27;5.10;;;1.25;;
51082;SDS011;37131;42.694;23.350;2024-01-27T02:05:52;4.38;;;2.00;;
51082;SDS011;37131;42.694;23.350;2024-01-27T02:08:18;5.03;;;1.35;;
51082;SDS011;37131;42.694;23.350;2024-01-27T02:10:44;8.10;;;3.00;;
51082;SDS011;37131;42.694;23.350;2024-01-27T02:13:16;4.45;;;1.63;;
51082;SDS011;37131;42.694;23.350;2024-01-27T02:15:47;7.22;;;1.95;;
51082;SDS011;37131;42.694;23.350;2024-01-27T02:18:13;5.85;;;1.63;;
51082;SDS011;37131;42.694;23.350;2024-01-27T02:20:38;4.70;;;3.03;;
51082;SDS011;37131;42.694;23.350;2024-01-27T02:23:04;6.53;;;2.60;;
51082;SDS011;37131;42.694;23.350;2024-01-27T02:25:30;5.15;;;2.50;;
51082;SDS011;37131;42.694;23.350;2024-01-27T02:27:56;4.18;;;1.88;;
51082;SDS011;37131;42.694;23.350;2024-01-27T02:30:21;7.35;;;2.78;;
51082;SDS011;37131;42.694;23.350;2024-01-27T02:32:47;9.15;;;2.25;;
51082;SDS011;37131;42.694;23.350;2024-01-27T02:35:12;7.10;;;2.95;;
51082;SDS011;37131;42.694;23.350;2024-01-27T02:37:39;6.72;;;2.45;;
51082;SDS011;37131;42.694;23.350;2024-01-27T02:40:05;12.82;;;3.45;;
51082;SDS011;37131;42.694;23.350;2024-01-27T02:42:32;5.75;;;2.40;;
51082;SDS011;37131;42.694;23.350;2024-01-27T02:44:58;8.45;;;3.15;;
51082;SDS011;37131;42.694;23.350;2024-01-27T02:47:23;5.65;;;2.65;;
51082;SDS011;37131;42.694;23.350;2024-01-27T02:49:48;5.25;;;2.58;;
51082;SDS011;37131;42.694;23.350;2024-01-27T02:52:14;4.88;;;2.60;;
51082;SDS011;37131;42.694;23.350;2024-01-27T02:54:40;7.07;;;2.08;;
51082;SDS011;37131;42.694;23.350;2024-01-27T02:57:05;6.90;;;1.75;;
51082;SDS011;37131;42.694;23.350;2024-01-27T02:59:30;7.10;;;2.83;;
51082;SDS011;37131;42.694;23.350;2024-01-27T03:01:56;4.13;;;2.28;;
51082;SDS011;37131;42.694;23.350;2024-01-27T03:04:22;6.32;;;2.70;;
51082;SDS011;37131;42.694;23.350;2024-01-27T03:06:47;4.85;;;1.55;;
51082;SDS011;37131;42.694;23.350;2024-01-27T03:09:13;6.15;;;2.60;;
51082;SDS011;37131;42.694;23.350;2024-01-27T03:11:38;7.50;;;2.97;;
51082;SDS011;37131;42.694;23.350;2024-01-27T03:14:04;6.22;;;2.35;;
51082;SDS011;37131;42.694;23.350;2024-01-27T03:16:29;5.10;;;2.38;;
51082;SDS011;37131;42.694;23.350;2024-01-27T03:18:55;7.30;;;2.63;;
51082;SDS011;37131;42.694;23.350;2024-01-27T03:21:20;5.50;;;2.50;;
51082;SDS011;37131;42.694;23.350;2024-01-27T03:23:46;7.00;;;1.77;;
51082;SDS011;37131;42.694;23.350;2024-01-27T03:26:11;9.25;;;2.05;;
51082;SDS011;37131;42.694;23.350;2024-01-27T03:28:36;6.65;;;2.50;;
51082;SDS011;37131;42.694;23.350;2024-01-27T03:31:02;2.60;;;1.40;;
51082;SDS011;37131;42.694;23.350;2024-01-27T03:33:27;4.68;;;1.27;;
51082;SDS011;37131;42.694;23.350;2024-01-27T03:35:55;3.03;;;1.63;;
51082;SDS011;37131;42.694;23.350;2024-01-27T03:38:21;2.53;;;0.70;;
51082;SDS011;37131;42.694;23.350;2024-01-27T03:40:47;5.03;;;1.35;;
51082;SDS011;37131;42.694;23.350;2024-01-27T03:43:12;4.05;;;1.30;;
51082;SDS011;37131;42.694;23.350;2024-01-27T03:45:37;2.00;;;1.17;;
51082;SDS011;37131;42.694;23.350;2024-01-27T03:48:03;4.22;;;1.30;;
51082;SDS011;37131;42.694;23.350;2024-01-27T03:50:28;4.57;;;1.60;;
51082;SDS011;37131;42.694;23.350;2024-01-27T03:52:54;5.45;;;1.73;;
51082;SDS011;37131;42.694;23.350;2024-01-27T03:55:19;6.05;;;2.08;;
51082;SDS011;37131;42.694;23.350;2024-01-27T03:57:45;3.42;;;1.65;;
51082;SDS011;37131;42.694;23.350;2024-01-27T04:00:10;2.72;;;1.45;;
51082;SDS011;37131;42.694;23.350;2024-01-27T04:02:37;5.30;;;0.80;;
51082;SDS011;37131;42.694;23.350;2024-01-27T04:05:03;4.13;;;1.00;;
51082;SDS011;37131;42.694;23.350;2024-01-27T04:07:30;4.00;;;1.40;;
51082;SDS011;37131;42.694;23.350;2024-01-27T04:09:55;6.90;;;1.45;;
51082;SDS011;37131;42.694;23.350;2024-01-27T04:12:21;7.30;;;1.40;;
51082;SDS011;37131;42.694;23.350;2024-01-27T04:14:46;4.10;;;1.35;;
51082;SDS011;37131;42.694;23.350;2024-01-27T04:17:11;3.25;;;1.05;;
51082;SDS011;37131;42.694;23.350;2024-01-27T04:19:37;3.60;;;1.25;;
51082;SDS011;37131;42.694;23.350;2024-01-27T04:22:02;5.38;;;1.65;;
51082;SDS011;37131;42.694;23.350;2024-01-27T04:24:28;3.63;;;1.52;;
51082;SDS011;37131;42.694;23.350;2024-01-27T04:26:54;2.88;;;0.90;;
51082;SDS011;37131;42.694;23.350;2024-01-27T04:29:19;2.97;;;1.75;;
51082;SDS011;37131;42.694;23.350;2024-01-27T04:31:45;3.40;;;1.83;;
51082;SDS011;37131;42.694;23.350;2024-01-27T04:34:10;6.90;;;1.13;;
51082;SDS011;37131;42.694;23.350;2024-01-27T04:36:35;4.70;;;2.08;;
51082;SDS011;37131;42.694;23.350;2024-01-27T04:39:01;4.20;;;2.17;;
51082;SDS011;37131;42.694;23.350;2024-01-27T04:41:27;2.70;;;1.23;;
51082;SDS011;37131;42.694;23.350;2024-01-27T04:43:53;4.95;;;2.08;;
51082;SDS011;37131;42.694;23.350;2024-01-27T04:46:20;2.22;;;1.60;;
51082;SDS011;37131;42.694;23.350;2024-01-27T04:48:45;3.95;;;2.10;;
51082;SDS011;37131;42.694;23.350;2024-01-27T04:51:11;3.30;;;1.50;;
51082;SDS011;37131;42.694;23.350;2024-01-27T04:53:36;5.05;;;2.20;;
51082;SDS011;37131;42.694;23.350;2024-01-27T04:56:01;3.92;;;1.92;;
51082;SDS011;37131;42.694;23.350;2024-01-27T04:58:27;3.20;;;1.20;;
51082;SDS011;37131;42.694;23.350;2024-01-27T05:00:52;7.25;;;2.42;;
51082;SDS011;37131;42.694;23.350;2024-01-27T05:03:18;3.90;;;2.20;;
51082;SDS011;37131;42.694;23.350;2024-01-27T05:05:43;8.13;;;2.90;;
51082;SDS011;37131;42.694;23.350;2024-01-27T05:08:09;4.75;;;2.63;;
51082;SDS011;37131;42.694;23.350;2024-01-27T05:10:34;9.30;;;3.70;;
51082;SDS011;37131;42.694;23.350;2024-01-27T05:13:00;9.77;;;3.58;;
51082;SDS011;37131;42.694;23.350;2024-01-27T05:15:26;7.75;;;4.72;;
51082;SDS011;37131;42.694;23.350;2024-01-27T05:17:51;9.65;;;5.35;;
51082;SDS011;37131;42.694;23.350;2024-01-27T05:20:17;9.27;;;5.63;;
51082;SDS011;37131;42.694;23.350;2024-01-27T05:22:44;7.78;;;4.53;;
51082;SDS011;37131;42.694;23.350;2024-01-27T05:25:09;7.65;;;4.85;;
51082;SDS011;37131;42.694;23.350;2024-01-27T05:27:36;7.38;;;4.28;;
51082;SDS011;37131;42.694;23.350;2024-01-27T05:32:27;7.35;;;3.58;;
51082;SDS011;37131;42.694;23.350;2024-01-27T05:34:53;8.30;;;3.42;;
51082;SDS011;37131;42.694;23.350;2024-01-27T05:37:18;7.78;;;3.47;;
51082;SDS011;37131;42.694;23.350;2024-01-27T05:39:56;6.40;;;2.42;;
51082;SDS011;37131;42.694;23.350;2024-01-27T05:42:22;6.97;;;2.72;;
51082;SDS011;37131;42.694;23.350;2024-01-27T05:44:47;6.97;;;2.67;;
51082;SDS011;37131;42.694;23.350;2024-01-27T05:47:12;7.25;;;3.22;;
51082;SDS011;37131;42.694;23.350;2024-01-27T05:49:38;4.45;;;2.03;;
51082;SDS011;37131;42.694;23.350;2024-01-27T05:52:03;9.98;;;2.28;;
51082;SDS011;37131;42.694;23.350;2024-01-27T05:54:29;5.20;;;1.92;;
51082;SDS011;37131;42.694;23.350;2024-01-27T05:56:54;4.93;;;1.92;;
51082;SDS011;37131;42.694;23.350;2024-01-27T05:59:20;4.50;;;2.13;;
51082;SDS011;37131;42.694;23.350;2024-01-27T06:01:45;6.32;;;2.65;;
51082;SDS011;37131;42.694;23.350;2024-01-27T06:04:11;6.45;;;2.88;;
51082;SDS011;37131;42.694;23.350;2024-01-27T06:06:39;8.30;;;3.10;;
51082;SDS011;37131;42.694;23.350;2024-01-27T06:09:04;6.03;;;2.38;;
51082;SDS011;37131;42.694;23.350;2024-01-27T06:11:30;9.15;;;3.10;;
51082;SDS011;37131;42.694;23.350;2024-01-27T06:13:55;5.97;;;3.22;;
51082;SDS011;37131;42.694;23.350;2024-01-27T06:16:21;10.18;;;4.43;;
51082;SDS011;37131;42.694;23.350;2024-01-27T06:18:46;10.15;;;2.67;;
51082;SDS011;37131;42.694;23.350;2024-01-27T06:21:12;9.18;;;2.97;;
51082;SDS011;37131;42.694;23.350;2024-01-27T06:23:38;10.70;;;3.05;;
51082;SDS011;37131;42.694;23.350;2024-01-27T06:26:04;3.65;;;2.53;;
51082;SDS011;37131;42.694;23.350;2024-01-27T06:28:34;6.45;;;2.97;;
51082;SDS011;37131;42.694;23.350;2024-01-27T06:31:00;6.63;;;3.70;;
51082;SDS011;37131;42.694;23.350;2024-01-27T06:33:26;8.02;;;2.92;;
51082;SDS011;37131;42.694;23.350;2024-01-27T06:35:51;6.43;;;3.28;;
51082;SDS011;37131;42.694;23.350;2024-01-27T06:38:16;6.25;;;2.75;;
51082;SDS011;37131;42.694;23.350;2024-01-27T06:40:42;9.55;;;3.10;;
51082;SDS011;37131;42.694;23.350;2024-01-27T06:43:07;5.43;;;2.35;;
51082;SDS011;37131;42.694;23.350;2024-01-27T06:45:34;10.82;;;4.10;;
51082;SDS011;37131;42.694;23.350;2024-01-27T06:47:59;6.78;;;2.75;;
51082;SDS011;37131;42.694;23.350;2024-01-27T06:50:25;5.13;;;2.70;;
51082;SDS011;37131;42.694;23.350;2024-01-27T06:52:50;4.20;;;1.55;;
51082;SDS011;37131;42.694;23.350;2024-01-27T06:55:18;2.25;;;0.95;;
51082;SDS011;37131;42.694;23.350;2024-01-27T06:57:43;5.55;;;2.25;;
51082;SDS011;37131;42.694;23.350;2024-01-27T07:00:09;3.17;;;1.13;;
51082;SDS011;37131;42.694;23.350;2024-01-27T07:02:39;4.93;;;1.33;;
51082;SDS011;37131;42.694;23.350;2024-01-27T07:05:06;4.07;;;0.50;;
51082;SDS011;37131;42.694;23.350;2024-01-27T07:07:32;3.58;;;1.58;;
51082;SDS011;37131;42.694;23.350;2024-01-27T07:09:58;1.88;;;1.15;;
51082;SDS011;37131;42.694;23.350;2024-01-27T07:12:23;1.88;;;0.85;;
51082;SDS011;37131;42.694;23.350;2024-01-27T07:14:49;3.20;;;0.77;;
51082;SDS011;37131;42.694;23.350;2024-01-27T07:17:16;2.25;;;0.63;;
51082;SDS011;37131;42.694;23.350;2024-01-27T07:19:41;1.98;;;1.08;;
51082;SDS011;37131;42.694;23.350;2024-01-27T07:22:07;1.63;;;1.00;;
51082;SDS011;37131;42.694;23.350;2024-01-27T07:24:33;3.45;;;0.85;;
51082;SDS011;37131;42.694;23.350;2024-01-27T07:27:00;1.83;;;1.58;;
51082;SDS011;37131;42.694;23.350;2024-01-27T07:29:25;2.22;;;1.15;;
51082;SDS011;37131;42.694;23.350;2024-01-27T07:31:51;2.25;;;1.55;;
51082;SDS011;37131;42.694;23.350;2024-01-27T07:34:17;1.48;;;1.08;;
51082;SDS011;37131;42.694;23.350;2024-01-27T07:36:43;3.17;;;1.38;;
51082;SDS011;37131;42.694;23.350;2024-01-27T07:39:09;2.95;;;1.60;;
51082;SDS011;37131;42.694;23.350;2024-01-27T07:41:34;2.10;;;1.63;;
51082;SDS011;37131;42.694;23.350;2024-01-27T07:44:07;1.30;;;0.88;;
51082;SDS011;37131;42.694;23.350;2024-01-27T07:46:40;0.93;;;0.52;;
51082;SDS011;37131;42.694;23.350;2024-01-27T07:49:07;1.40;;;0.80;;
51082;SDS011;37131;42.694;23.350;2024-01-27T07:51:33;2.53;;;1.15;;
51082;SDS011;37131;42.694;23.350;2024-01-27T07:53:59;3.95;;;1.60;;
51082;SDS011;37131;42.694;23.350;2024-01-27T07:56:25;6.05;;;2.60;;
51082;SDS011;37131;42.694;23.350;2024-01-27T07:58:51;2.58;;;1.45;;
51082;SDS011;37131;42.694;23.350;2024-01-27T08:01:17;3.88;;;2.40;;
51082;SDS011;37131;42.694;23.350;2024-01-27T08:03:43;3.55;;;1.33;;
51082;SDS011;37131;42.694;23.350;2024-01-27T08:06:15;2.50;;;1.13;;
51082;SDS011;37131;42.694;23.350;2024-01-27T08:08:45;2.50;;;0.90;;
51082;SDS011;37131;42.694;23.350;2024-01-27T08:11:12;2.97;;;1.88;;
51082;SDS011;37131;42.694;23.350;2024-01-27T08:13:38;1.83;;;1.40;;
51082;SDS011;37131;42.694;23.350;2024-01-27T08:16:03;5.93;;;1.55;;
51082;SDS011;37131;42.694;23.350;2024-01-27T08:18:30;1.48;;;1.38;;
51082;SDS011;37131;42.694;23.350;2024-01-27T08:20:55;3.13;;;2.45;;
51082;SDS011;37131;42.694;23.350;2024-01-27T08:23:21;3.00;;;2.13;;
51082;SDS011;37131;42.694;23.350;2024-01-27T08:25:46;4.90;;;2.05;;
51082;SDS011;37131;42.694;23.350;2024-01-27T08:28:15;5.40;;;1.98;;
51082;SDS011;37131;42.694;23.350;2024-01-27T08:30:40;1.75;;;1.30;;
51082;SDS011;37131;42.694;23.350;2024-01-27T08:33:05;4.30;;;2.50;;
51082;SDS011;37131;42.694;23.350;2024-01-27T08:35:31;4.65;;;1.75;;
51082;SDS011;37131;42.694;23.350;2024-01-27T08:37:56;3.75;;;1.40;;
51082;SDS011;37131;42.694;23.350;2024-01-27T08:40:21;2.97;;;1.98;;
51082;SDS011;37131;42.694;23.350;2024-01-27T08:42:47;3.53;;;1.65;;
51082;SDS011;37131;42.694;23.350;2024-01-27T08:45:12;2.72;;;2.42;;
51082;SDS011;37131;42.694;23.350;2024-01-27T08:47:38;3.88;;;1.67;;
51082;SDS011;37131;42.694;23.350;2024-01-27T08:50:03;3.63;;;2.40;;
51082;SDS011;37131;42.694;23.350;2024-01-27T08:52:29;2.72;;;1.75;;
51082;SDS011;37131;42.694;23.350;2024-01-27T08:54:55;4.22;;;1.38;;
51082;SDS011;37131;42.694;23.350;2024-01-27T08:57:20;3.25;;;2.28;;
51082;SDS011;37131;42.694;23.350;2024-01-27T08:59:46;1.73;;;1.13;;
51082;SDS011;37131;42.694;23.350;2024-01-27T09:02:11;2.15;;;1.75;;
51082;SDS011;37131;42.694;23.350;2024-01-27T09:04:36;2.13;;;1.65;;
51082;SDS011;37131;42.694;23.350;2024-01-27T09:07:02;5.40;;;2.53;;
51082;SDS011;37131;42.694;23.350;2024-01-27T09:09:27;3.10;;;1.80;;
51082;SDS011;37131;42.694;23.350;2024-01-27T09:11:54;2.72;;;1.63;;
51082;SDS011;37131;42.694;23.350;2024-01-27T09:14:19;2.72;;;1.80;;
51082;SDS011;37131;42.694;23.350;2024-01-27T09:16:44;1.35;;;1.08;;
51082;SDS011;37131;42.694;23.350;2024-01-27T09:19:11;1.77;;;1.13;;
51082;SDS011;37131;42.694;23.350;2024-01-27T09:21:36;1.95;;;1.58;;
51082;SDS011;37131;42.694;23.350;2024-01-27T09:24:02;3.15;;;2.05;;
51082;SDS011;37131;42.694;23.350;2024-01-27T09:26:28;2.85;;;1.60;;
51082;SDS011;37131;42.694;23.350;2024-01-27T09:28:54;4.07;;;2.17;;
51082;SDS011;37131;42.694;23.350;2024-01-27T09:31:22;4.30;;;1.23;;
51082;SDS011;37131;42.694;23.350;2024-01-27T09:33:52;3.03;;;1.85;;
51082;SDS011;37131;42.694;23.350;2024-01-27T09:36:19;2.25;;;1.85;;
51082;SDS011;37131;42.694;23.350;2024-01-27T09:38:47;2.15;;;1.80;;
51082;SDS011;37131;42.694;23.350;2024-01-27T09:41:13;3.63;;;1.10;;
51082;SDS011;37131;42.694;23.350;2024-01-27T09:43:42;3.15;;;2.08;;
51082;SDS011;37131;42.694;23.350;2024-01-27T09:46:11;2.55;;;1.85;;
51082;SDS011;37131;42.694;23.350;2024-01-27T09:48:37;2.63;;;1.98;;
51082;SDS011;37131;42.694;23.350;2024-01-27T09:51:03;2.20;;;1.17;;
51082;SDS011;37131;42.694;23.350;2024-01-27T09:53:29;2.25;;;1.38;;
51082;SDS011;37131;42.694;23.350;2024-01-27T09:55:58;3.53;;;2.00;;
51082;SDS011;37131;42.694;23.350;2024-01-27T09:58:29;2.88;;;2.20;;
51082;SDS011;37131;42.694;23.350;2024-01-27T10:00:59;2.03;;;1.45;;
51082;SDS011;37131;42.694;23.350;2024-01-27T10:03:25;1.95;;;1.10;;
51082;SDS011;37131;42.694;23.350;2024-01-27T10:05:52;1.92;;;1.35;;
51082;SDS011;37131;42.694;23.350;2024-01-27T10:08:19;2.42;;;1.20;;
51082;SDS011;37131;42.694;23.350;2024-01-27T10:10:45;2.45;;;1.40;;
51082;SDS011;37131;42.694;23.350;2024-01-27T10:13:11;2.10;;;1.50;;
51082;SDS011;37131;42.694;23.350;2024-01-27T10:15:42;2.10;;;1.08;;
51082;SDS011;37131;42.694;23.350;2024-01-27T10:18:08;3.35;;;1.73;;
51082;SDS011;37131;42.694;23.350;2024-01-27T10:20:38;3.55;;;1.23;;
51082;SDS011;37131;42.694;23.350;2024-01-27T10:23:12;2.63;;;1.60;;
51082;SDS011;37131;42.694;23.350;2024-01-27T10:25:38;2.78;;;1.30;;
51082;SDS011;37131;42.694;23.350;2024-01-27T10:28:06;2.95;;;1.73;;
51082;SDS011;37131;42.694;23.350;2024-01-27T10:30:33;1.92;;;1.73;;
51082;SDS011;37131;42.694;23.350;2024-01-27T10:32:58;2.60;;;1.77;;
51082;SDS011;37131;42.694;23.350;2024-01-27T10:35:23;2.80;;;1.52;;
51082;SDS011;37131;42.694;23.350;2024-01-27T10:37:52;1.55;;;1.17;;
51082;SDS011;37131;42.694;23.350;2024-01-27T10:40:19;3.33;;;1.42;;
51082;SDS011;37131;42.694;23.350;2024-01-27T10:42:45;2.45;;;1.08;;
51082;SDS011;37131;42.694;23.350;2024-01-27T10:45:11;2.75;;;1.67;;
51082;SDS011;37131;42.694;23.350;2024-01-27T10:47:38;1.95;;;1.30;;
51082;SDS011;37131;42.694;23.350;2024-01-27T10:50:05;1.85;;;1.33;;
51082;SDS011;37131;42.694;23.350;2024-01-27T10:52:36;1.83;;;1.70;;
51082;SDS011;37131;42.694;23.350;2024-01-27T10:55:04;1.83;;;1.30;;
51082;SDS011;37131;42.694;23.350;2024-01-27T10:57:33;2.70;;;1.17;;
51082;SDS011;37131;42.694;23.350;2024-01-27T11:00:05;2.00;;;1.63;;
51082;SDS011;37131;42.694;23.350;2024-01-27T11:02:33;2.58;;;1.60;;
51082;SDS011;37131;42.694;23.350;2024-01-27T11:05:02;3.15;;;1.80;;
51082;SDS011;37131;42.694;23.350;2024-01-27T11:07:32;2.38;;;1.50;;
51082;SDS011;37131;42.694;23.350;2024-01-27T11:09:58;1.67;;;0.95;;
51082;SDS011;37131;42.694;23.350;2024-01-27T11:12:23;2.40;;;2.20;;
51082;SDS011;37131;42.694;23.350;2024-01-27T11:14:50;2.08;;;1.38;;
51082;SDS011;37131;42.694;23.350;2024-01-27T11:17:17;2.35;;;1.45;;
51082;SDS011;37131;42.694;23.350;2024-01-27T11:19:44;1.17;;;0.63;;
51082;SDS011;37131;42.694;23.350;2024-01-27T11:24:49;4.65;;;2.20;;
51082;SDS011;37131;42.694;23.350;2024-01-27T11:27:14;3.17;;;1.27;;
51082;SDS011;37131;42.694;23.350;2024-01-27T11:29:46;5.63;;;2.70;;
51082;SDS011;37131;42.694;23.350;2024-01-27T11:32:12;3.10;;;2.33;;
51082;SDS011;37131;42.694;23.350;2024-01-27T11:34:41;5.45;;;3.03;;
51082;SDS011;37131;42.694;23.350;2024-01-27T11:37:11;3.33;;;1.88;;
51082;SDS011;37131;42.694;23.350;2024-01-27T11:42:06;2.78;;;1.98;;
51082;SDS011;37131;42.694;23.350;2024-01-27T11:44:39;2.60;;;1.42;;
51082;SDS011;37131;42.694;23.350;2024-01-27T11:47:08;2.00;;;1.33;;
51082;SDS011;37131;42.694;23.350;2024-01-27T11:52:05;1.80;;;0.90;;
51082;SDS011;37131;42.694;23.350;2024-01-27T11:54:31;1.75;;;0.98;;
51082;SDS011;37131;42.694;23.350;2024-01-27T11:56:57;4.05;;;3.00;;
51082;SDS011;37131;42.694;23.350;2024-01-27T11:59:22;2.28;;;1.60;;
51082;SDS011;37131;42.694;23.350;2024-01-27T12:01:48;3.20;;;2.15;;
51082;SDS011;37131;42.694;23.350;2024-01-27T12:04:14;3.00;;;1.73;;
51082;SDS011;37131;42.694;23.350;2024-01-27T12:06:40;2.72;;;2.13;;
51082;SDS011;37131;42.694;23.350;2024-01-27T12:09:06;2.33;;;2.13;;
51082;SDS011;37131;42.694;23.350;2024-01-27T12:11:37;2.38;;;1.50;;
51082;SDS011;37131;42.694;23.350;2024-01-27T12:14:05;3.22;;;2.92;;
51082;SDS011;37131;42.694;23.350;2024-01-27T12:16:30;3.90;;;2.13;;
51082;SDS011;37131;42.694;23.350;2024-01-27T12:18:56;2.28;;;1.80;;
51082;SDS011;37131;42.694;23.350;2024-01-27T12:21:21;2.80;;;2.60;;
51082;SDS011;37131;42.694;23.350;2024-01-27T12:23:50;4.47;;;2.60;;
51082;SDS011;37131;42.694;23.350;2024-01-27T12:26:16;3.30;;;2.97;;
51082;SDS011;37131;42.694;23.350;2024-01-27T12:28:45;4.63;;;2.58;;
51082;SDS011;37131;42.694;23.350;2024-01-27T12:31:11;3.20;;;2.90;;
51082;SDS011;37131;42.694;23.350;2024-01-27T12:33:37;2.97;;;2.15;;
51082;SDS011;37131;42.694;23.350;2024-01-27T12:36:02;2.85;;;2.65;;
51082;SDS011;37131;42.694;23.350;2024-01-27T12:38:32;2.65;;;2.35;;
51082;SDS011;37131;42.694;23.350;2024-01-27T12:40:58;5.43;;;2.80;;
51082;SDS011;37131;42.694;23.350;2024-01-27T12:43:23;2.67;;;2.10;;
51082;SDS011;37131;42.694;23.350;2024-01-27T12:45:48;2.55;;;1.42;;
51082;SDS011;37131;42.694;23.350;2024-01-27T12:48:14;2.40;;;2.15;;
51082;SDS011;37131;42.694;23.350;2024-01-27T12:50:39;1.95;;;1.85;;
51082;SDS011;37131;42.694;23.350;2024-01-27T12:53:04;4.60;;;2.15;;
51082;SDS011;37131;42.694;23.350;2024-01-27T12:55:30;4.60;;;2.50;;
51082;SDS011;37131;42.694;23.350;2024-01-27T12:57:55;3.53;;;2.30;;
51082;SDS011;37131;42.694;23.350;2024-01-27T13:00:22;3.22;;;2.92;;
51082;SDS011;37131;42.694;23.350;2024-01-27T13:02:47;2.65;;;2.30;;
51082;SDS011;37131;42.694;23.350;2024-01-27T13:05:13;3.28;;;2.60;;
51082;SDS011;37131;42.694;23.350;2024-01-27T13:07:38;5.35;;;2.20;;
51082;SDS011;37131;42.694;23.350;2024-01-27T13:10:04;3.97;;;2.85;;
51082;SDS011;37131;42.694;23.350;2024-01-27T13:12:30;2.30;;;2.08;;
51082;SDS011;37131;42.694;23.350;2024-01-27T13:14:56;3.65;;;1.95;;
51082;SDS011;37131;42.694;23.350;2024-01-27T13:17:21;3.78;;;1.38;;
51082;SDS011;37131;42.694;23.350;2024-01-27T13:19:47;2.70;;;2.00;;
51082;SDS011;37131;42.694;23.350;2024-01-27T13:22:12;3.50;;;2.05;;
51082;SDS011;37131;42.694;23.350;2024-01-27T13:24:38;2.03;;;1.73;;
51082;SDS011;37131;42.694;23.350;2024-01-27T13:27:03;3.25;;;1.80;;
51082;SDS011;37131;42.694;23.350;2024-01-27T13:29:30;1.20;;;0.88;;
51082;SDS011;37131;42.694;23.350;2024-01-27T13:31:57;3.00;;;1.65;;
51082;SDS011;37131;42.694;23.350;2024-01-27T13:34:23;1.65;;;1.13;;
51082;SDS011;37131;42.694;23.350;2024-01-27T13:36:49;2.63;;;2.22;;
51082;SDS011;37131;42.694;23.350;2024-01-27T13:39:14;2.15;;;1.50;;
51082;SDS011;37131;42.694;23.350;2024-01-27T13:41:39;4.05;;;1.20;;
51082;SDS011;37131;42.694;23.350;2024-01-27T13:44:05;1.50;;;1.38;;
51082;SDS011;37131;42.694;23.350;2024-01-27T13:46:31;3.95;;;1.67;;
51082;SDS011;37131;42.694;23.350;2024-01-27T13:48:56;2.08;;;1.30;;
51082;SDS011;37131;42.694;23.350;2024-01-27T13:51:21;1.40;;;1.30;;
51082;SDS011;37131;42.694;23.350;2024-01-27T13:53:47;2.50;;;1.83;;
51082;SDS011;37131;42.694;23.350;2024-01-27T13:56:12;3.30;;;1.52;;
51082;SDS011;37131;42.694;23.350;2024-01-27T13:58:38;2.75;;;1.95;;
51082;SDS011;37131;42.694;23.350;2024-01-27T14:01:04;1.95;;;1.70;;
51082;SDS011;37131;42.694;23.350;2024-01-27T14:03:29;2.53;;;2.00;;
51082;SDS011;37131;42.694;23.350;2024-01-27T14:05:54;3.08;;;1.85;;
51082;SDS011;37131;42.694;23.350;2024-01-27T14:08:20;3.08;;;1.90;;
51082;SDS011;37131;42.694;23.350;2024-01-27T14:10:45;2.60;;;1.02;;
51082;SDS011;37131;42.694;23.350;2024-01-27T14:13:13;6.20;;;1.90;;
51082;SDS011;37131;42.694;23.350;2024-01-27T14:15:38;3.22;;;2.13;;
51082;SDS011;37131;42.694;23.350;2024-01-27T14:18:04;1.48;;;1.15;;
51082;SDS011;37131;42.694;23.350;2024-01-27T14:20:31;2.65;;;1.90;;
51082;SDS011;37131;42.694;23.350;2024-01-27T14:23:01;2.92;;;0.93;;
51082;SDS011;37131;42.694;23.350;2024-01-27T14:25:27;2.15;;;1.65;;
51082;SDS011;37131;42.694;23.350;2024-01-27T14:27:52;2.70;;;0.93;;
51082;SDS011;37131;42.694;23.350;2024-01-27T14:30:18;2.92;;;1.35;;
51082;SDS011;37131;42.694;23.350;2024-01-27T14:32:43;3.00;;;1.98;;
51082;SDS011;37131;42.694;23.350;2024-01-27T14:35:09;4.60;;;1.20;;
51082;SDS011;37131;42.694;23.350;2024-01-27T14:37:34;2.92;;;1.70;;